Time;durP1;ratioP1;P1;durP2;ratioP2;P2;SDS_P1;SDS_P2;PMS_P1;PMS_P2;Temp;Humidity;BMP_temperature;BMP_pressure;BME280_temperature;BME280_humidity;BME280_pressure;Samples;Min_cycle;Max_cycle;Signal;HPM_P1;HPM_P2
2023/07/15 00:01:11;;;;;;;10.40;6.03;;;21.20;23.60;;;;;;4975163;28;20477;-69
2023/07/15 00:03:37;;;;;;;8.70;6.60;;;21.20;24.30;;;;;;4962791;28;20494;-69
2023/07/15 00:06:05;;;;;;;9.20;5.87;;;21.10;24.30;;;;;;4965906;28;20477;-69
2023/07/15 00:08:33;;;;;;;9.77;5.37;;;21.10;23.90;;;;;;4961527;28;20477;-69
2023/07/15 00:11:02;;;;;;;8.53;5.20;;;21.10;23.90;;;;;;4962858;28;20535;-70
2023/07/15 00:13:29;;;;;;;9.13;6.53;;;21.00;24.20;;;;;;4965458;28;20573;-70
2023/07/15 00:15:57;;;;;;;8.43;5.73;;;21.00;24.20;;;;;;4964334;28;20462;-70
2023/07/15 00:18:25;;;;;;;8.07;5.00;;;21.00;24.30;;;;;;4964009;28;20474;-70
2023/07/15 00:20:52;;;;;;;8.50;5.47;;;20.90;24.20;;;;;;4956111;28;20533;-70
2023/07/15 00:23:21;;;;;;;10.13;5.83;;;20.90;24.50;;;;;;4949630;28;20490;-70
2023/07/15 00:25:48;;;;;;;9.40;5.40;;;20.80;25.00;;;;;;4959452;28;20462;-70
2023/07/15 00:28:16;;;;;;;9.80;4.47;;;20.80;24.80;;;;;;4960894;28;20557;-70
2023/07/15 00:30:43;;;;;;;8.47;4.80;;;20.80;24.90;;;;;;4972713;28;20484;-69
2023/07/15 00:33:15;;;;;;;9.10;5.10;;;20.80;24.90;;;;;;4988020;28;20865;-70
2023/07/15 00:35:43;;;;;;;8.37;5.33;;;20.70;25.20;;;;;;4982857;28;20501;-69
2023/07/15 00:38:11;;;;;;;7.10;5.40;;;20.70;24.90;;;;;;4985089;28;20460;-69
2023/07/15 00:40:42;;;;;;;10.80;5.23;;;20.70;24.90;;;;;;4984262;28;20473;-69
2023/07/15 00:43:46;;;;;;;8.23;5.97;;;20.70;25.60;;;;;;4985057;28;20464;-70
2023/07/15 00:46:43;;;;;;;8.87;5.67;;;20.60;25.30;;;;;;4986213;28;20468;-70
2023/07/15 00:49:15;;;;;;;8.87;5.20;;;20.60;25.80;;;;;;4960581;28;20459;-70
2023/07/15 00:51:44;;;;;;;7.87;5.33;;;20.50;26.40;;;;;;4984773;28;20477;-69
2023/07/15 00:54:13;;;;;;;8.03;5.00;;;20.50;25.80;;;;;;4983865;28;20507;-69
2023/07/15 00:56:40;;;;;;;9.90;5.30;;;20.50;26.20;;;;;;4989307;28;20527;-69
2023/07/15 00:59:09;;;;;;;10.03;5.60;;;20.50;26.40;;;;;;4982985;28;20526;-69
2023/07/15 01:01:36;;;;;;;8.80;6.07;;;20.40;26.60;;;;;;4971256;28;20477;-68
2023/07/15 01:04:05;;;;;;;9.20;6.43;;;20.40;27.10;;;;;;4965802;28;20494;-70
2023/07/15 01:06:33;;;;;;;10.27;5.83;;;20.30;27.40;;;;;;4967298;28;20625;-70
2023/07/15 01:09:00;;;;;;;9.00;6.10;;;20.30;27.60;;;;;;4961698;28;20509;-69
2023/07/15 01:11:29;;;;;;;9.40;5.83;;;20.20;27.70;;;;;;4958481;28;20857;-70
2023/07/15 01:13:56;;;;;;;9.33;5.57;;;20.10;28.00;;;;;;5136369;23;20572;-69
2023/07/15 01:16:23;;;;;;;9.37;6.03;;;20.10;28.20;;;;;;4990843;28;20444;-69
2023/07/15 01:18:50;;;;;;;8.20;6.37;;;20.00;28.20;;;;;;4992832;28;21041;-69
2023/07/15 01:21:20;;;;;;;10.20;6.27;;;20.00;28.50;;;;;;4993322;28;20456;-69
2023/07/15 01:23:48;;;;;;;9.27;6.37;;;19.90;28.90;;;;;;4992626;28;20455;-70
2023/07/15 01:26:15;;;;;;;9.90;6.20;;;19.90;29.00;;;;;;4992885;28;20460;-69
2023/07/15 01:28:42;;;;;;;13.67;6.37;;;19.90;29.40;;;;;;4992564;28;20479;-69
2023/07/15 01:31:09;;;;;;;8.57;6.30;;;19.90;29.30;;;;;;4992030;28;20559;-69
2023/07/15 01:33:36;;;;;;;9.50;6.93;;;19.80;29.80;;;;;;4992024;28;20510;-70
2023/07/15 01:36:04;;;;;;;12.20;7.00;;;19.80;30.20;;;;;;4992569;28;21062;-70
2023/07/15 01:38:32;;;;;;;9.33;6.30;;;19.70;30.30;;;;;;4992420;28;20488;-69
2023/07/15 01:41:00;;;;;;;10.60;6.80;;;19.60;31.00;;;;;;4992350;28;20464;-69
2023/07/15 01:43:26;;;;;;;9.20;5.87;;;19.60;31.40;;;;;;4991813;28;20461;-69
2023/07/15 01:45:53;;;;;;;8.03;6.07;;;19.60;31.20;;;;;;4992447;28;20460;-69
2023/07/15 01:48:20;;;;;;;8.27;5.73;;;19.70;31.60;;;;;;4992586;28;20484;-69
2023/07/15 01:50:48;;;;;;;9.03;5.93;;;19.60;31.10;;;;;;4992513;28;20464;-70
2023/07/15 01:53:15;;;;;;;8.93;5.67;;;19.70;31.30;;;;;;4991770;28;20460;-69
2023/07/15 01:55:42;;;;;;;7.60;6.00;;;19.70;31.10;;;;;;4992252;28;20465;-68
2023/07/15 01:58:10;;;;;;;8.20;6.67;;;19.70;31.20;;;;;;4992442;28;20488;-69
2023/07/15 02:00:37;;;;;;;10.63;6.63;;;19.70;31.30;;;;;;4994145;28;20490;-69
2023/07/15 02:03:04;;;;;;;8.20;6.40;;;19.70;31.40;;;;;;5011525;28;20858;-70
2023/07/15 02:05:31;;;;;;;9.07;5.53;;;19.70;31.00;;;;;;5011953;28;20456;-69
2023/07/15 02:07:57;;;;;;;10.60;6.87;;;19.70;31.00;;;;;;5011756;28;21029;-71
2023/07/15 02:10:24;;;;;;;8.67;5.53;;;19.70;31.30;;;;;;5011368;28;20462;-70
2023/07/15 02:12:51;;;;;;;8.47;6.20;;;19.60;30.80;;;;;;5011717;28;20501;-69
2023/07/15 02:15:19;;;;;;;9.33;6.10;;;19.60;30.90;;;;;;5011464;28;20464;-69
2023/07/15 02:17:46;;;;;;;8.80;6.43;;;19.60;31.00;;;;;;5011571;28;20480;-69
2023/07/15 02:20:13;;;;;;;10.13;6.60;;;19.60;30.90;;;;;;5011192;28;20799;-69
2023/07/15 02:22:41;;;;;;;8.87;6.27;;;19.60;30.90;;;;;;5010978;28;20487;-69
2023/07/15 02:25:09;;;;;;;9.87;6.63;;;19.60;31.00;;;;;;5011224;28;20466;-69
2023/07/15 02:27:35;;;;;;;7.80;6.23;;;19.60;31.10;;;;;;5011245;28;20563;-69
2023/07/15 02:30:05;;;;;;;13.23;7.57;;;19.60;30.90;;;;;;5010364;28;20456;-70
2023/07/15 02:32:39;;;;;;;9.37;6.40;;;19.50;31.10;;;;;;5010289;28;20857;-69
2023/07/15 02:35:09;;;;;;;9.50;6.30;;;19.50;31.30;;;;;;5010866;28;20452;-68
2023/07/15 02:37:37;;;;;;;8.77;5.90;;;19.50;31.00;;;;;;5010863;28;20510;-69
2023/07/15 02:40:05;;;;;;;9.60;6.40;;;19.50;30.90;;;;;;5010698;28;20464;-70
2023/07/15 02:42:33;;;;;;;10.17;6.60;;;19.50;31.00;;;;;;5011054;28;21006;-69
2023/07/15 02:45:03;;;;;;;9.13;6.50;;;19.50;31.00;;;;;;5010881;28;20862;-68
2023/07/15 02:47:30;;;;;;;10.07;5.33;;;19.50;31.10;;;;;;5010935;28;20811;-67
2023/07/15 02:49:59;;;;;;;10.87;6.20;;;19.40;31.20;;;;;;5010575;28;20462;-67
2023/07/15 02:52:26;;;;;;;8.60;6.07;;;19.40;31.50;;;;;;5011025;28;20463;-67
2023/07/15 02:54:53;;;;;;;9.73;6.07;;;19.40;31.70;;;;;;5010391;28;20549;-67
2023/07/15 02:57:20;;;;;;;10.03;6.10;;;19.40;31.90;;;;;;5010958;28;20484;-67
2023/07/15 02:59:49;;;;;;;14.20;5.90;;;19.40;32.00;;;;;;5010335;28;20462;-67
2023/07/15 03:02:16;;;;;;;10.37;6.40;;;19.40;32.00;;;;;;5010077;28;20471;-67
2023/07/15 03:04:43;;;;;;;9.30;5.60;;;19.30;32.40;;;;;;5009495;28;20831;-67
2023/07/15 03:07:13;;;;;;;10.30;6.87;;;19.30;32.40;;;;;;5010615;28;20965;-67
2023/07/15 03:09:40;;;;;;;10.67;5.63;;;19.30;32.40;;;;;;5010139;28;20464;-67
2023/07/15 03:12:08;;;;;;;8.73;5.77;;;19.30;32.20;;;;;;5010535;28;20481;-68
2023/07/15 03:14:35;;;;;;;16.43;6.97;;;19.30;32.10;;;;;;5009981;28;20472;-68
2023/07/15 03:17:02;;;;;;;9.20;6.70;;;19.30;32.20;;;;;;5010579;28;20774;-68
2023/07/15 03:19:31;;;;;;;8.40;6.00;;;19.30;32.00;;;;;;5010638;28;20826;-68
2023/07/15 03:21:58;;;;;;;8.77;6.50;;;19.30;32.40;;;;;;5010030;28;20965;-68
2023/07/15 03:24:26;;;;;;;8.80;6.87;;;19.30;31.90;;;;;;5010428;28;20634;-68
2023/07/15 03:26:53;;;;;;;13.83;7.13;;;19.30;32.30;;;;;;5010186;28;20491;-68
2023/07/15 03:29:20;;;;;;;10.87;6.70;;;19.30;32.30;;;;;;5010674;28;20474;-68
2023/07/15 03:31:46;;;;;;;14.83;6.50;;;19.30;32.30;;;;;;5009238;28;21054;-68
2023/07/15 03:34:14;;;;;;;10.17;6.87;;;19.30;33.10;;;;;;5010465;28;20452;-68
2023/07/15 03:36:40;;;;;;;11.23;6.83;;;19.20;32.50;;;;;;5010316;28;20962;-68
2023/07/15 03:39:07;;;;;;;10.87;6.93;;;19.20;32.90;;;;;;5009678;28;20463;-68
2023/07/15 03:41:36;;;;;;;9.37;6.50;;;19.20;32.90;;;;;;5009520;28;20470;-67
2023/07/15 03:44:04;;;;;;;8.90;6.33;;;19.20;33.00;;;;;;5010269;28;20488;-68
2023/07/15 03:46:31;;;;;;;10.10;7.10;;;19.20;32.80;;;;;;5010274;28;20950;-68
2023/07/15 03:48:57;;;;;;;10.97;6.97;;;19.30;32.80;;;;;;5010896;23;20499;-71
2023/07/15 03:51:24;;;;;;;9.07;6.87;;;19.30;32.80;;;;;;4994723;28;20786;-71
2023/07/15 03:53:51;;;;;;;10.90;6.20;;;19.30;32.50;;;;;;4997773;28;20950;-71
2023/07/15 03:56:18;;;;;;;13.00;6.50;;;19.30;32.30;;;;;;4998438;28;20463;-71
2023/07/15 03:58:46;;;;;;;10.30;6.87;;;19.40;32.10;;;;;;4998459;28;20871;-71
2023/07/15 04:01:13;;;;;;;9.30;6.70;;;19.40;32.00;;;;;;4996745;28;20480;-72
2023/07/15 04:03:40;;;;;;;8.80;5.70;;;19.40;32.00;;;;;;4997861;28;20570;-70
2023/07/15 04:06:07;;;;;;;11.20;7.10;;;19.40;31.70;;;;;;5001578;28;20907;-71
2023/07/15 04:08:35;;;;;;;9.10;6.50;;;19.50;31.70;;;;;;4998452;28;20515;-71
2023/07/15 04:11:02;;;;;;;11.10;6.00;;;19.50;31.60;;;;;;4995884;28;20475;-71
2023/07/15 04:13:29;;;;;;;16.50;6.70;;;19.50;31.60;;;;;;4997526;28;21024;-69
2023/07/15 04:15:57;;;;;;;10.10;6.50;;;19.60;31.30;;;;;;4996721;28;20827;-70
2023/07/15 04:18:24;;;;;;;13.33;6.33;;;19.50;31.10;;;;;;4994600;28;20484;-71
2023/07/15 04:20:51;;;;;;;10.13;6.67;;;19.60;31.10;;;;;;4996095;28;20492;-70
2023/07/15 04:23:18;;;;;;;10.87;7.37;;;19.60;31.20;;;;;;4991471;28;20537;-71
2023/07/15 04:25:46;;;;;;;10.70;7.37;;;19.60;31.30;;;;;;4998978;28;20468;-71
2023/07/15 04:28:15;;;;;;;11.47;7.20;;;19.60;31.30;;;;;;4994715;28;20534;-72
2023/07/15 04:30:42;;;;;;;11.80;6.40;;;19.70;31.40;;;;;;4999460;28;20468;-70
2023/07/15 04:33:10;;;;;;;14.87;6.57;;;19.80;31.20;;;;;;4996724;28;20670;-72
2023/07/15 04:35:37;;;;;;;9.40;6.07;;;19.90;31.70;;;;;;4997150;28;20486;-71
2023/07/15 04:38:04;;;;;;;7.33;4.70;;;20.70;31.20;;;;;;5001210;28;20487;-72
2023/07/15 04:40:31;;;;;;;8.70;5.30;;;21.80;28.20;;;;;;4995295;28;20519;-70
2023/07/15 04:42:58;;;;;;;7.30;4.70;;;22.80;24.80;;;;;;4994989;28;20479;-70
2023/07/15 04:45:25;;;;;;;9.80;5.03;;;23.70;21.40;;;;;;4995129;28;20478;-71
2023/07/15 04:47:51;;;;;;;8.00;5.40;;;24.40;18.80;;;;;;5003004;28;20494;-70
2023/07/15 04:50:20;;;;;;;8.93;5.73;;;24.80;16.90;;;;;;4995030;28;20652;-71
2023/07/15 04:52:46;;;;;;;10.40;5.33;;;24.80;16.10;;;;;;4999176;28;20467;-70
2023/07/15 04:55:14;;;;;;;8.03;5.00;;;24.30;16.60;;;;;;5000159;28;20467;-71
2023/07/15 04:57:41;;;;;;;8.60;5.07;;;23.80;17.60;;;;;;4999790;28;20488;-71
2023/07/15 05:00:10;;;;;;;7.83;4.93;;;24.30;17.70;;;;;;4998756;28;20463;-71
2023/07/15 05:02:37;;;;;;;9.13;5.03;;;25.60;14.50;;;;;;4999712;28;21005;-71
2023/07/15 05:05:05;;;;;;;7.43;4.63;;;26.90;11.30;;;;;;4996763;28;20481;-72
2023/07/15 05:07:33;;;;;;;10.03;4.80;;;28.00;9.00;;;;;;5000274;28;20975;-72
2023/07/15 05:10:00;;;;;;;8.80;4.67;;;29.00;6.90;;;;;;4998753;28;20467;-70
2023/07/15 05:12:27;;;;;;;5.80;3.80;;;29.80;4.80;;;;;;4998829;28;20471;-72
2023/07/15 05:14:54;;;;;;;9.00;3.93;;;30.70;3.00;;;;;;4994477;28;20460;-71
2023/07/15 05:17:21;;;;;;;9.93;4.70;;;31.50;1.70;;;;;;4997650;28;20486;-73
2023/07/15 05:19:47;;;;;;;6.83;4.13;;;32.20;1.00;;;;;;4996790;28;20488;-70
2023/07/15 05:22:14;;;;;;;5.93;3.53;;;33.00;1.00;;;;;;4994084;28;20482;-72
2023/07/15 05:24:42;;;;;;;5.17;3.30;;;33.70;1.00;;;;;;4997415;28;20483;-71
2023/07/15 05:27:09;;;;;;;10.20;3.70;;;34.30;1.00;;;;;;5002654;28;20494;-72
2023/07/15 05:29:36;;;;;;;7.33;3.93;;;34.90;1.00;;;;;;5002890;28;20476;-71
2023/07/15 05:32:03;;;;;;;6.90;3.67;;;35.60;1.00;;;;;;5000286;28;20495;-71
2023/07/15 05:34:29;;;;;;;8.10;3.90;;;36.20;1.00;;;;;;4996108;28;20471;-72
2023/07/15 05:36:56;;;;;;;6.07;3.57;;;36.70;1.00;;;;;;4998550;28;20483;-71
2023/07/15 05:39:23;;;;;;;6.93;4.07;;;37.30;1.00;;;;;;4999182;28;20471;-72
2023/07/15 05:41:51;;;;;;;5.10;2.97;;;37.60;1.00;;;;;;4995985;28;20464;-71
2023/07/15 05:44:18;;;;;;;6.03;3.70;;;38.00;1.00;;;;;;4997929;28;20700;-71
2023/07/15 05:46:44;;;;;;;7.13;3.23;;;38.50;1.00;;;;;;5003040;28;20471;-74
2023/07/15 05:49:11;;;;;;;8.23;3.57;;;39.10;1.00;;;;;;4994373;28;20996;-71
2023/07/15 05:51:38;;;;;;;8.30;3.97;;;39.70;1.00;;;;;;4991175;28;20459;-72
2023/07/15 05:54:05;;;;;;;7.10;3.50;;;40.40;1.00;;;;;;4994826;28;20527;-73
2023/07/15 05:56:32;;;;;;;5.10;3.17;;;41.10;1.00;;;;;;4999923;28;20468;-72
2023/07/15 05:59:00;;;;;;;5.50;3.10;;;41.60;1.00;;;;;;4996207;28;20839;-72
2023/07/15 06:01:27;;;;;;;4.63;2.70;;;42.20;1.00;;;;;;4993818;28;20471;-71
2023/07/15 06:03:54;;;;;;;7.43;3.70;;;42.70;1.00;;;;;;4994428;28;20503;-73
2023/07/15 06:06:21;;;;;;;5.43;3.00;;;43.20;1.00;;;;;;4996409;28;20498;-72
2023/07/15 06:08:48;;;;;;;6.03;3.10;;;43.60;1.00;;;;;;4996747;28;20485;-73
2023/07/15 06:11:15;;;;;;;7.57;3.60;;;43.90;1.00;;;;;;4995491;28;20459;-73
2023/07/15 06:13:42;;;;;;;5.43;2.73;;;44.50;1.00;;;;;;4999048;28;20464;-75
2023/07/15 06:16:10;;;;;;;4.60;2.47;;;44.90;1.00;;;;;;4997998;28;20471;-72
2023/07/15 06:18:37;;;;;;;5.40;3.20;;;45.60;1.00;;;;;;4998079;28;20965;-73
2023/07/15 06:21:04;;;;;;;6.53;3.17;;;46.20;1.00;;;;;;4991273;28;20480;-74
2023/07/15 06:23:31;;;;;;;9.70;3.33;;;46.90;1.00;;;;;;4997783;28;20487;-74
2023/07/15 06:25:57;;;;;;;5.20;2.70;;;47.40;1.00;;;;;;4997662;28;20468;-74
2023/07/15 06:28:24;;;;;;;5.37;3.17;;;48.00;1.00;;;;;;4996058;28;20766;-74
2023/07/15 06:31:00;;;;;;;5.40;2.83;;;48.50;1.00;;;;;;4997991;28;20488;-74
2023/07/15 06:33:28;;;;;;;6.00;3.27;;;49.10;1.00;;;;;;4997059;28;20792;-75
2023/07/15 06:35:55;;;;;;;7.03;2.80;;;49.60;1.00;;;;;;4996593;28;20478;-75
2023/07/15 06:38:22;;;;;;;7.93;3.50;;;50.10;1.00;;;;;;4998935;28;20985;-74
2023/07/15 06:40:49;;;;;;;5.30;2.80;;;50.70;1.00;;;;;;5000656;28;20474;-74
2023/07/15 06:43:16;;;;;;;5.73;3.03;;;51.30;1.00;;;;;;4998780;28;20518;-74
2023/07/15 06:45:42;;;;;;;5.30;3.00;;;51.60;1.00;;;;;;4999714;28;20954;-74
2023/07/15 06:48:09;;;;;;;5.30;2.50;;;52.00;1.00;;;;;;4994017;28;20519;-74
2023/07/15 06:50:37;;;;;;;5.70;2.73;;;52.60;1.00;;;;;;5001514;28;20478;-74
2023/07/15 06:53:04;;;;;;;4.77;3.17;;;53.10;1.00;;;;;;4991869;28;20460;-74
2023/07/15 06:55:31;;;;;;;4.90;2.77;;;53.40;1.00;;;;;;5000667;28;20826;-75
2023/07/15 06:57:58;;;;;;;5.70;3.30;;;53.80;1.00;;;;;;5009321;28;20974;-74
2023/07/15 07:00:24;;;;;;;5.90;3.07;;;54.20;1.00;;;;;;4999435;28;20958;-75
2023/07/15 07:02:51;;;;;;;6.63;3.23;;;54.40;1.00;;;;;;4979106;28;20472;-74
2023/07/15 07:05:19;;;;;;;5.53;2.73;;;54.60;1.00;;;;;;4982257;28;20880;-74
2023/07/15 07:07:47;;;;;;;5.60;2.73;;;54.80;1.00;;;;;;4979104;28;20512;-73
2023/07/15 07:10:14;;;;;;;7.13;3.10;;;55.10;1.00;;;;;;4981188;28;20452;-75
2023/07/15 07:12:41;;;;;;;7.30;2.90;;;55.40;1.00;;;;;;4981880;28;21178;-75
2023/07/15 07:15:09;;;;;;;4.50;2.50;;;55.80;1.00;;;;;;4982470;28;21035;-75
2023/07/15 07:17:36;;;;;;;4.57;2.60;;;55.80;1.00;;;;;;4980149;28;20231;-71
2023/07/15 07:20:04;;;;;;;5.77;2.77;;;55.60;1.00;;;;;;4977943;28;20204;-74
2023/07/15 07:22:31;;;;;;;6.03;3.03;;;55.60;1.00;;;;;;4981008;28;20565;-75
2023/07/15 07:24:59;;;;;;;4.80;2.23;;;55.40;1.00;;;;;;4977706;28;20546;-72
2023/07/15 07:27:26;;;;;;;6.50;3.00;;;55.80;1.00;;;;;;4982521;28;20217;-73
2023/07/15 07:29:58;;;;;;;5.13;2.30;;;55.90;1.00;;;;;;4976761;28;21010;-72
2023/07/15 07:32:25;;;;;;;4.80;2.27;;;56.00;1.00;;;;;;4978742;28;20504;-74
2023/07/15 07:34:51;;;;;;;4.90;2.53;;;56.00;1.00;;;;;;4980717;28;20571;-74
2023/07/15 07:37:18;;;;;;;5.47;2.63;;;56.10;1.00;;;;;;4979658;28;21013;-74
2023/07/15 07:39:45;;;;;;;4.47;2.83;;;56.30;1.00;;;;;;4980957;28;20727;-74
2023/07/15 07:42:15;;;;;;;6.65;2.53;;;56.90;1.00;;;;;;4983811;28;20693;-71
2023/07/15 07:44:42;;;;;;;3.90;2.10;;;57.50;1.00;;;;;;4980663;28;20217;-74
2023/07/15 07:47:09;;;;;;;7.07;2.60;;;58.00;1.00;;;;;;4980858;28;20688;-74
2023/07/15 07:49:36;;;;;;;6.85;2.58;;;58.40;1.00;;;;;;4979811;28;20218;-74
2023/07/15 07:52:03;;;;;;;4.03;2.17;;;58.50;1.00;;;;;;4977755;28;20200;-74
2023/07/15 07:54:30;;;;;;;4.63;2.30;;;58.80;1.00;;;;;;4979893;28;20193;-73
2023/07/15 07:56:57;;;;;;;5.18;2.92;;;59.00;1.00;;;;;;4975510;28;20827;-74
2023/07/15 07:59:25;;;;;;;5.25;2.78;;;59.30;1.00;;;;;;4983146;28;20297;-73
2023/07/15 08:01:52;;;;;;;3.97;2.20;;;59.40;1.00;;;;;;4975548;28;20220;-73
2023/07/15 08:04:19;;;;;;;5.10;2.80;;;59.60;1.00;;;;;;4976489;28;20218;-73
2023/07/15 08:06:46;;;;;;;7.28;2.80;;;59.30;1.00;;;;;;4977411;28;20208;-74
2023/07/15 08:09:12;;;;;;;5.82;2.60;;;59.30;1.00;;;;;;4974793;28;20198;-75
2023/07/15 08:11:39;;;;;;;3.80;2.20;;;59.30;1.00;;;;;;4973052;28;20201;-73
2023/07/15 08:14:06;;;;;;;5.85;2.60;;;59.30;1.00;;;;;;4984011;28;20279;-73
2023/07/15 08:16:36;;;;;;;5.38;2.47;;;59.30;1.00;;;;;;4981982;28;20201;-72
2023/07/15 08:19:03;;;;;;;4.55;2.80;;;59.80;1.00;;;;;;4975197;28;20194;-72
2023/07/15 08:21:30;;;;;;;3.60;2.22;;;60.20;1.00;;;;;;4976259;28;20558;-73
2023/07/15 08:23:58;;;;;;;4.82;2.50;;;60.50;1.00;;;;;;4964335;28;20221;-75
2023/07/15 08:26:25;;;;;;;4.80;2.28;;;60.50;1.00;;;;;;4981157;28;20213;-74
2023/07/15 08:28:55;;;;;;;3.97;2.78;;;60.60;1.00;;;;;;4981437;28;20221;-73
2023/07/15 08:31:22;;;;;;;5.18;2.30;;;61.00;1.00;;;;;;4977983;28;20292;-74
2023/07/15 08:33:50;;;;;;;5.60;2.88;;;61.00;1.00;;;;;;4982070;28;20212;-73
2023/07/15 08:36:17;;;;;;;4.55;2.47;;;61.30;1.00;;;;;;4988994;28;20204;-73
2023/07/15 08:38:44;;;;;;;4.60;2.50;;;61.60;1.00;;;;;;4983832;28;20591;-72
2023/07/15 08:41:11;;;;;;;5.00;2.78;;;62.10;1.00;;;;;;4976072;28;20265;-74
2023/07/15 08:43:38;;;;;;;5.18;2.60;;;62.50;1.00;;;;;;4983799;28;20212;-74
2023/07/15 08:46:13;;;;;;;4.43;2.50;;;62.50;1.00;;;;;;4985506;28;20190;-74
2023/07/15 08:48:40;;;;;;;4.50;2.70;;;62.50;1.00;;;;;;4980645;28;20232;-75
2023/07/15 08:51:09;;;;;;;3.80;1.90;;;62.70;1.00;;;;;;4981643;28;20215;-74
2023/07/15 08:53:38;;;;;;;3.35;2.08;;;62.80;1.00;;;;;;4975612;28;20210;-74
2023/07/15 08:56:06;;;;;;;4.65;2.50;;;63.00;1.00;;;;;;4984282;28;20304;-75
2023/07/15 08:58:33;;;;;;;4.50;2.30;;;63.10;1.00;;;;;;4986922;28;20723;-75
2023/07/15 09:01:00;;;;;;;3.40;2.17;;;63.40;1.00;;;;;;4994790;28;20232;-74
2023/07/15 09:03:28;;;;;;;5.47;1.95;;;63.10;1.00;;;;;;4999545;28;20193;-74
2023/07/15 09:05:55;;;;;;;3.63;2.10;;;63.00;1.00;;;;;;5000260;28;20200;-75
2023/07/15 09:08:26;;;;;;;4.45;2.20;;;63.00;1.00;;;;;;5003189;28;20583;-73
2023/07/15 09:10:53;;;;;;;4.32;2.13;;;63.20;1.00;;;;;;5000726;28;20295;-74
2023/07/15 09:13:25;;;;;;;3.97;2.17;;;63.20;1.00;;;;;;4998914;28;20320;-74
2023/07/15 09:15:52;;;;;;;3.42;1.92;;;63.40;1.00;;;;;;4994623;28;20209;-74
2023/07/15 09:18:19;;;;;;;4.38;1.90;;;63.40;1.00;;;;;;4992113;28;20786;-74
2023/07/15 09:20:47;;;;;;;3.20;1.83;;;62.80;1.00;;;;;;5000293;28;20288;-73
2023/07/15 09:23:14;;;;;;;4.10;2.05;;;63.00;1.00;;;;;;5000453;28;20201;-73
2023/07/15 09:25:51;;;;;;;4.80;2.10;;;62.90;1.00;;;;;;4999219;28;20280;-75
2023/07/15 09:28:19;;;;;;;3.65;2.00;;;62.70;1.00;;;;;;4996761;28;20687;-74
2023/07/15 09:30:46;;;;;;;4.55;1.85;;;62.20;1.00;;;;;;4997747;28;20229;-73
2023/07/15 09:33:29;;;;;;;5.90;1.92;;;62.00;1.00;;;;;;4997371;28;20207;-74
2023/07/15 09:35:56;;;;;;;4.30;2.55;;;60.60;1.00;;;;;;4997440;28;20217;-73
2023/07/15 09:38:23;;;;;;;4.88;2.13;;;59.70;1.00;;;;;;5003689;28;20251;-73
2023/07/15 09:40:51;;;;;;;5.97;2.13;;;57.80;1.00;;;;;;5001107;28;20284;-73
2023/07/15 09:43:18;;;;;;;3.78;2.10;;;56.00;1.00;;;;;;5004973;28;20220;-73
2023/07/15 09:45:45;;;;;;;5.82;2.28;;;54.40;1.00;;;;;;5004950;28;20197;-74
2023/07/15 09:48:16;;;;;;;3.70;2.10;;;52.90;1.00;;;;;;5039872;23;20233;-67
2023/07/15 09:50:43;;;;;;;3.90;2.40;;;51.10;1.00;;;;;;5012246;28;20267;-67
2023/07/15 09:53:12;;;;;;;6.50;2.40;;;49.20;1.00;;;;;;5008918;28;20466;-67
2023/07/15 09:55:39;;;;;;;4.60;2.50;;;47.60;1.00;;;;;;5009497;28;20488;-67
2023/07/15 09:58:13;;;;;;;8.20;2.67;;;46.00;1.00;;;;;;5007714;28;20521;-67
2023/07/15 10:00:43;;;;;;;5.33;2.43;;;44.50;1.00;;;;;;5005487;28;20479;-66
2023/07/15 10:03:17;;;;;;;4.67;2.57;;;43.40;1.00;;;;;;5012981;28;20463;-68
2023/07/15 10:05:45;;;;;;;4.30;2.30;;;42.50;1.00;;;;;;5000967;28;20459;-67
2023/07/15 10:08:12;;;;;;;4.87;2.57;;;41.70;1.00;;;;;;5010812;28;20556;-67
2023/07/15 10:10:40;;;;;;;4.60;2.10;;;40.80;1.00;;;;;;5009892;28;20464;-66
2023/07/15 10:13:07;;;;;;;5.27;2.70;;;39.80;1.00;;;;;;5009449;28;20471;-67
2023/07/15 10:15:35;;;;;;;9.70;2.90;;;39.00;1.00;;;;;;5007452;28;20876;-66
2023/07/15 10:18:13;;;;;;;4.60;2.40;;;38.40;1.00;;;;;;5010511;28;20470;-66
2023/07/15 10:20:42;;;;;;;4.50;2.50;;;37.90;1.00;;;;;;5008812;28;20943;-66
2023/07/15 10:23:10;;;;;;;5.93;2.57;;;37.70;1.00;;;;;;5012007;28;20514;-66
2023/07/15 10:25:36;;;;;;;5.23;2.87;;;37.30;1.00;;;;;;5009353;28;20880;-67
2023/07/15 10:28:13;;;;;;;5.10;2.40;;;37.00;1.00;;;;;;5008544;28;20475;-67
2023/07/15 10:31:08;;;;;;;4.40;2.60;;;36.60;1.00;;;;;;5004003;28;20551;-67
2023/07/15 10:33:35;;;;;;;8.50;2.77;;;36.40;1.00;;;;;;4988576;28;20492;-65
2023/07/15 10:36:05;;;;;;;9.80;3.07;;;36.10;1.00;;;;;;4996298;28;20570;-67
2023/07/15 10:38:32;;;;;;;7.40;3.00;;;35.90;1.00;;;;;;4992965;28;20630;-66
2023/07/15 10:41:02;;;;;;;5.00;2.40;;;35.70;1.00;;;;;;4993635;28;20464;-66
2023/07/15 10:43:40;;;;;;;6.20;2.83;;;35.50;1.00;;;;;;4990860;28;20488;-67
2023/07/15 10:46:09;;;;;;;5.43;2.73;;;35.20;1.00;;;;;;4997030;28;20456;-67
2023/07/15 10:48:36;;;;;;;6.10;2.60;;;35.10;1.00;;;;;;4995674;28;20465;-66
2023/07/15 10:51:06;;;;;;;5.33;2.27;;;34.80;1.00;;;;;;4996934;28;20467;-66
2023/07/15 10:53:33;;;;;;;5.43;2.47;;;34.70;1.00;;;;;;4994692;28;20542;-66
2023/07/15 10:56:02;;;;;;;6.27;2.70;;;34.50;1.00;;;;;;4990244;28;20487;-66
2023/07/15 10:58:30;;;;;;;5.30;2.80;;;34.40;1.00;;;;;;4995191;28;20964;-65
2023/07/15 11:01:01;;;;;;;5.07;2.23;;;34.40;1.00;;;;;;4982896;28;20481;-66
2023/07/15 11:03:30;;;;;;;7.03;2.73;;;34.40;1.00;;;;;;4995018;28;20532;-66
2023/07/15 11:05:58;;;;;;;5.10;2.30;;;34.30;1.00;;;;;;4986821;28;20474;-66
2023/07/15 11:08:25;;;;;;;5.17;2.57;;;34.20;1.00;;;;;;4993310;28;21498;-66
2023/07/15 11:10:58;;;;;;;4.47;2.30;;;34.10;1.00;;;;;;4989610;28;20492;-66
2023/07/15 11:13:25;;;;;;;4.53;2.00;;;34.00;1.00;;;;;;4992329;28;20505;-66
2023/07/15 11:15:52;;;;;;;5.53;2.40;;;34.10;1.00;;;;;;4992976;28;20571;-66
2023/07/15 11:18:19;;;;;;;4.90;2.50;;;34.00;1.00;;;;;;4989473;28;20465;-66
2023/07/15 11:20:49;;;;;;;5.63;2.30;;;34.10;1.00;;;;;;4989947;28;20457;-66
2023/07/15 11:23:15;;;;;;;5.60;2.27;;;34.10;1.00;;;;;;4985172;28;20503;-66
2023/07/15 11:25:42;;;;;;;4.13;2.03;;;34.00;1.00;;;;;;4989757;28;20456;-66
2023/07/15 11:28:10;;;;;;;10.60;2.60;;;34.00;1.00;;;;;;4988249;28;20456;-66
2023/07/15 11:30:38;;;;;;;5.20;2.03;;;34.00;1.00;;;;;;4986900;28;20480;-66
2023/07/15 11:33:05;;;;;;;4.20;2.13;;;33.80;1.00;;;;;;5010642;28;20456;-67
2023/07/15 11:35:33;;;;;;;4.67;2.13;;;33.80;1.00;;;;;;5006279;28;20486;-67
2023/07/15 11:38:07;;;;;;;4.90;2.20;;;33.80;1.00;;;;;;5004823;28;20985;-67
2023/07/15 11:40:35;;;;;;;5.17;2.47;;;33.70;1.00;;;;;;5003121;28;20468;-67
2023/07/15 11:43:05;;;;;;;4.70;2.70;;;33.70;1.00;;;;;;5007163;28;20464;-68
2023/07/15 11:45:32;;;;;;;4.93;2.40;;;33.70;1.00;;;;;;5008678;28;20459;-67
2023/07/15 11:47:59;;;;;;;4.47;2.23;;;33.70;1.00;;;;;;5007284;28;20471;-67
2023/07/15 11:50:26;;;;;;;5.00;2.23;;;33.60;1.00;;;;;;5008984;28;20472;-68
2023/07/15 11:52:55;;;;;;;4.10;1.87;;;33.60;1.00;;;;;;5001355;28;20949;-68
2023/07/15 11:55:25;;;;;;;5.57;2.90;;;33.50;1.00;;;;;;5004670;28;20504;-67
2023/07/15 11:57:52;;;;;;;4.83;2.30;;;33.50;1.00;;;;;;5003326;28;20471;-67
2023/07/15 12:00:27;;;;;;;4.67;2.40;;;33.40;1.00;;;;;;5001225;28;20460;-68
2023/07/15 12:02:54;;;;;;;4.20;1.97;;;33.40;1.00;;;;;;4983921;28;20474;-67
2023/07/15 12:05:21;;;;;;;4.90;2.10;;;33.40;1.00;;;;;;4992128;28;20487;-67
2023/07/15 12:07:49;;;;;;;5.80;3.20;;;33.30;1.00;;;;;;4982205;28;20476;-67
2023/07/15 12:10:18;;;;;;;7.10;2.43;;;33.40;1.00;;;;;;4988623;28;20461;-67
2023/07/15 12:12:47;;;;;;;6.13;2.60;;;33.40;1.00;;;;;;4982027;28;20467;-67
2023/07/15 12:15:16;;;;;;;4.80;2.30;;;33.40;1.00;;;;;;4987846;28;20883;-68
2023/07/15 12:17:43;;;;;;;5.80;1.83;;;33.40;1.00;;;;;;4976506;28;20466;-68
2023/07/15 12:20:11;;;;;;;4.47;2.30;;;33.40;1.00;;;;;;4985051;28;20465;-68
2023/07/15 12:22:39;;;;;;;5.40;2.57;;;33.40;1.00;;;;;;4982196;28;20464;-68
2023/07/15 12:25:07;;;;;;;4.30;2.30;;;33.40;1.00;;;;;;4983529;28;20520;-67
2023/07/15 12:27:34;;;;;;;6.63;2.20;;;33.40;1.00;;;;;;4987997;28;20464;-67
2023/07/15 12:30:03;;;;;;;4.50;2.23;;;33.30;1.00;;;;;;4980193;28;21011;-67
2023/07/15 12:32:30;;;;;;;4.67;2.17;;;33.30;1.00;;;;;;4981569;28;20489;-67
2023/07/15 12:34:57;;;;;;;5.03;2.07;;;33.40;1.00;;;;;;4982523;28;21282;-66
2023/07/15 12:37:23;;;;;;;6.03;2.27;;;33.40;1.00;;;;;;4978805;28;20480;-67
2023/07/15 12:39:50;;;;;;;4.23;2.13;;;33.40;1.00;;;;;;4981488;28;20467;-67
2023/07/15 12:42:17;;;;;;;6.70;2.57;;;33.40;1.00;;;;;;4984160;28;20468;-67
2023/07/15 12:44:43;;;;;;;4.77;2.57;;;33.40;1.00;;;;;;4981393;28;20988;-68
2023/07/15 12:47:11;;;;;;;4.93;2.60;;;33.40;1.00;;;;;;4977210;28;20469;-67
2023/07/15 12:49:38;;;;;;;5.70;2.80;;;33.50;1.00;;;;;;4983931;28;20480;-67
2023/07/15 12:52:05;;;;;;;5.40;2.20;;;33.40;1.00;;;;;;4984655;28;20978;-66
2023/07/15 12:54:32;;;;;;;5.07;2.17;;;33.40;1.00;;;;;;4977171;28;20487;-68